sensor_id;sensor_type;location;lat;lon;timestamp;P1;durP1;ratioP1;P2;durP2;ratioP2
63087;SDS011;49173;43.164;27.786;2023-07-20T00:01:13;7.38;;;4.03;;
63087;SDS011;49173;43.164;27.786;2023-07-20T00:03:41;7.38;;;4.10;;
63087;SDS011;49173;43.164;27.786;2023-07-20T00:06:07;8.23;;;3.70;;
63087;SDS011;49173;43.164;27.786;2023-07-20T00:08:35;5.03;;;3.80;;
63087;SDS011;49173;43.164;27.786;2023-07-20T00:11:01;5.60;;;3.38;;
63087;SDS011;49173;43.164;27.786;2023-07-20T00:13:27;5.65;;;3.55;;
63087;SDS011;49173;43.164;27.786;2023-07-20T00:15:53;7.82;;;3.50;;
63087;SDS011;49173;43.164;27.786;2023-07-20T00:18:19;5.57;;;3.75;;
63087;SDS011;49173;43.164;27.786;2023-07-20T00:20:46;6.35;;;3.35;;
63087;SDS011;49173;43.164;27.786;2023-07-20T00:23:13;6.40;;;3.20;;
63087;SDS011;49173;43.164;27.786;2023-07-20T00:25:39;6.63;;;3.90;;
63087;SDS011;49173;43.164;27.786;2023-07-20T00:28:05;4.88;;;3.47;;
63087;SDS011;49173;43.164;27.786;2023-07-20T00:30:30;8.75;;;3.90;;
63087;SDS011;49173;43.164;27.786;2023-07-20T00:32:56;6.70;;;3.42;;
63087;SDS011;49173;43.164;27.786;2023-07-20T00:35:22;6.43;;;3.72;;
63087;SDS011;49173;43.164;27.786;2023-07-20T00:37:48;7.22;;;3.70;;
63087;SDS011;49173;43.164;27.786;2023-07-20T00:40:14;8.23;;;3.75;;
63087;SDS011;49173;43.164;27.786;2023-07-20T00:42:39;6.40;;;3.42;;
63087;SDS011;49173;43.164;27.786;2023-07-20T00:45:05;6.75;;;3.67;;
63087;SDS011;49173;43.164;27.786;2023-07-20T00:47:31;4.28;;;3.35;;
63087;SDS011;49173;43.164;27.786;2023-07-20T00:49:58;9.25;;;4.00;;
63087;SDS011;49173;43.164;27.786;2023-07-20T00:52:24;5.25;;;4.03;;
63087;SDS011;49173;43.164;27.786;2023-07-20T00:54:51;7.07;;;3.45;;
63087;SDS011;49173;43.164;27.786;2023-07-20T00:57:21;6.35;;;3.85;;
63087;SDS011;49173;43.164;27.786;2023-07-20T00:59:49;6.50;;;3.90;;
63087;SDS011;49173;43.164;27.786;2023-07-20T01:02:15;14.02;;;3.85;;
63087;SDS011;49173;43.164;27.786;2023-07-20T01:04:40;6.30;;;3.95;;
63087;SDS011;49173;43.164;27.786;2023-07-20T01:12:26;5.13;;;3.80;;
63087;SDS011;49173;43.164;27.786;2023-07-20T01:14:57;4.85;;;3.67;;
63087;SDS011;49173;43.164;27.786;2023-07-20T01:17:22;8.65;;;3.97;;
63087;SDS011;49173;43.164;27.786;2023-07-20T01:19:49;7.05;;;3.30;;
63087;SDS011;49173;43.164;27.786;2023-07-20T01:22:29;6.10;;;3.50;;
63087;SDS011;49173;43.164;27.786;2023-07-20T01:27:44;5.10;;;3.50;;
63087;SDS011;49173;43.164;27.786;2023-07-20T01:30:25;8.60;;;3.75;;
63087;SDS011;49173;43.164;27.786;2023-07-20T01:32:57;5.38;;;3.45;;
63087;SDS011;49173;43.164;27.786;2023-07-20T01:35:29;6.88;;;3.88;;
63087;SDS011;49173;43.164;27.786;2023-07-20T01:37:55;8.48;;;4.00;;
63087;SDS011;49173;43.164;27.786;2023-07-20T01:40:23;6.43;;;3.55;;
63087;SDS011;49173;43.164;27.786;2023-07-20T01:42:51;5.97;;;3.65;;
63087;SDS011;49173;43.164;27.786;2023-07-20T01:45:17;6.40;;;3.95;;
63087;SDS011;49173;43.164;27.786;2023-07-20T01:47:43;8.48;;;4.30;;
63087;SDS011;49173;43.164;27.786;2023-07-20T01:50:09;6.68;;;4.15;;
63087;SDS011;49173;43.164;27.786;2023-07-20T01:52:35;7.63;;;3.92;;
63087;SDS011;49173;43.164;27.786;2023-07-20T01:55:00;12.50;;;4.32;;
63087;SDS011;49173;43.164;27.786;2023-07-20T01:57:27;10.43;;;4.72;;
63087;SDS011;49173;43.164;27.786;2023-07-20T01:59:52;9.98;;;4.20;;
63087;SDS011;49173;43.164;27.786;2023-07-20T02:02:18;7.78;;;4.05;;
63087;SDS011;49173;43.164;27.786;2023-07-20T02:04:45;11.70;;;4.10;;
63087;SDS011;49173;43.164;27.786;2023-07-20T02:07:11;8.55;;;4.35;;
63087;SDS011;49173;43.164;27.786;2023-07-20T02:09:37;10.75;;;4.10;;
63087;SDS011;49173;43.164;27.786;2023-07-20T02:12:03;8.85;;;4.82;;
63087;SDS011;49173;43.164;27.786;2023-07-20T02:14:29;11.80;;;5.05;;
63087;SDS011;49173;43.164;27.786;2023-07-20T02:16:54;10.32;;;4.82;;
63087;SDS011;49173;43.164;27.786;2023-07-20T02:22:41;11.80;;;5.13;;
63087;SDS011;49173;43.164;27.786;2023-07-20T02:25:07;11.27;;;4.93;;
63087;SDS011;49173;43.164;27.786;2023-07-20T02:27:33;16.52;;;5.43;;
63087;SDS011;49173;43.164;27.786;2023-07-20T02:29:59;11.48;;;5.10;;
63087;SDS011;49173;43.164;27.786;2023-07-20T02:32:26;10.70;;;5.15;;
63087;SDS011;49173;43.164;27.786;2023-07-20T02:34:54;14.15;;;5.50;;
63087;SDS011;49173;43.164;27.786;2023-07-20T02:37:20;9.48;;;4.88;;
63087;SDS011;49173;43.164;27.786;2023-07-20T02:39:46;8.82;;;4.80;;
63087;SDS011;49173;43.164;27.786;2023-07-20T02:42:12;12.52;;;5.55;;
63087;SDS011;49173;43.164;27.786;2023-07-20T02:44:38;12.40;;;5.20;;
63087;SDS011;49173;43.164;27.786;2023-07-20T02:47:04;16.38;;;5.30;;
63087;SDS011;49173;43.164;27.786;2023-07-20T02:49:30;13.70;;;4.93;;
63087;SDS011;49173;43.164;27.786;2023-07-20T02:51:55;11.32;;;5.32;;
63087;SDS011;49173;43.164;27.786;2023-07-20T02:54:21;13.75;;;4.63;;
63087;SDS011;49173;43.164;27.786;2023-07-20T02:56:48;11.90;;;4.85;;
63087;SDS011;49173;43.164;27.786;2023-07-20T02:59:14;14.68;;;4.50;;
63087;SDS011;49173;43.164;27.786;2023-07-20T03:01:40;13.55;;;5.05;;
63087;SDS011;49173;43.164;27.786;2023-07-20T03:04:07;13.82;;;5.15;;
63087;SDS011;49173;43.164;27.786;2023-07-20T03:06:35;16.17;;;4.70;;
63087;SDS011;49173;43.164;27.786;2023-07-20T03:09:02;16.60;;;4.53;;
63087;SDS011;49173;43.164;27.786;2023-07-20T03:11:32;17.40;;;5.32;;
63087;SDS011;49173;43.164;27.786;2023-07-20T03:13:59;20.02;;;5.55;;
63087;SDS011;49173;43.164;27.786;2023-07-20T03:16:24;14.27;;;4.80;;
63087;SDS011;49173;43.164;27.786;2023-07-20T03:18:51;16.25;;;5.20;;
63087;SDS011;49173;43.164;27.786;2023-07-20T03:21:17;21.48;;;5.18;;
63087;SDS011;49173;43.164;27.786;2023-07-20T03:23:43;18.63;;;5.05;;
63087;SDS011;49173;43.164;27.786;2023-07-20T03:26:09;18.95;;;4.60;;
63087;SDS011;49173;43.164;27.786;2023-07-20T03:28:35;17.13;;;5.00;;
63087;SDS011;49173;43.164;27.786;2023-07-20T03:31:01;14.90;;;4.63;;
63087;SDS011;49173;43.164;27.786;2023-07-20T03:33:28;14.55;;;4.50;;
63087;SDS011;49173;43.164;27.786;2023-07-20T03:35:54;21.08;;;5.10;;
63087;SDS011;49173;43.164;27.786;2023-07-20T03:38:21;21.38;;;5.20;;
63087;SDS011;49173;43.164;27.786;2023-07-20T03:41:06;18.05;;;5.00;;
63087;SDS011;49173;43.164;27.786;2023-07-20T03:43:32;16.58;;;5.20;;
63087;SDS011;49173;43.164;27.786;2023-07-20T03:45:57;21.45;;;5.00;;
63087;SDS011;49173;43.164;27.786;2023-07-20T03:48:23;20.42;;;5.78;;
63087;SDS011;49173;43.164;27.786;2023-07-20T03:50:51;20.90;;;5.05;;
63087;SDS011;49173;43.164;27.786;2023-07-20T03:53:18;27.50;;;5.45;;
63087;SDS011;49173;43.164;27.786;2023-07-20T03:55:47;20.25;;;5.55;;
63087;SDS011;49173;43.164;27.786;2023-07-20T03:58:14;29.35;;;5.15;;
63087;SDS011;49173;43.164;27.786;2023-07-20T04:00:43;33.65;;;5.43;;
63087;SDS011;49173;43.164;27.786;2023-07-20T04:03:10;13.25;;;4.60;;
63087;SDS011;49173;43.164;27.786;2023-07-20T04:05:35;15.95;;;4.70;;
63087;SDS011;49173;43.164;27.786;2023-07-20T04:08:01;25.05;;;5.93;;
63087;SDS011;49173;43.164;27.786;2023-07-20T04:10:27;17.73;;;4.50;;
63087;SDS011;49173;43.164;27.786;2023-07-20T04:12:53;21.88;;;5.18;;
63087;SDS011;49173;43.164;27.786;2023-07-20T04:15:18;18.63;;;4.55;;
63087;SDS011;49173;43.164;27.786;2023-07-20T04:17:44;15.23;;;4.90;;
63087;SDS011;49173;43.164;27.786;2023-07-20T04:20:11;18.08;;;5.00;;
63087;SDS011;49173;43.164;27.786;2023-07-20T04:22:36;11.23;;;4.47;;
63087;SDS011;49173;43.164;27.786;2023-07-20T04:25:02;17.77;;;5.45;;
63087;SDS011;49173;43.164;27.786;2023-07-20T04:27:29;23.27;;;5.10;;
63087;SDS011;49173;43.164;27.786;2023-07-20T04:29:55;20.05;;;4.97;;
63087;SDS011;49173;43.164;27.786;2023-07-20T04:32:21;15.52;;;4.35;;
63087;SDS011;49173;43.164;27.786;2023-07-20T04:34:47;23.30;;;4.93;;
63087;SDS011;49173;43.164;27.786;2023-07-20T04:37:12;17.42;;;4.95;;
63087;SDS011;49173;43.164;27.786;2023-07-20T04:39:38;13.90;;;4.50;;
63087;SDS011;49173;43.164;27.786;2023-07-20T04:42:04;15.43;;;4.88;;
63087;SDS011;49173;43.164;27.786;2023-07-20T04:44:30;13.90;;;5.00;;
63087;SDS011;49173;43.164;27.786;2023-07-20T04:46:56;11.85;;;5.05;;
63087;SDS011;49173;43.164;27.786;2023-07-20T04:49:24;11.48;;;4.93;;
63087;SDS011;49173;43.164;27.786;2023-07-20T04:51:50;13.75;;;5.40;;
63087;SDS011;49173;43.164;27.786;2023-07-20T04:54:17;14.98;;;5.30;;
63087;SDS011;49173;43.164;27.786;2023-07-20T04:56:44;15.68;;;5.45;;
63087;SDS011;49173;43.164;27.786;2023-07-20T04:59:10;11.68;;;4.80;;
63087;SDS011;49173;43.164;27.786;2023-07-20T05:01:35;16.02;;;4.78;;
63087;SDS011;49173;43.164;27.786;2023-07-20T05:04:01;15.85;;;5.28;;
63087;SDS011;49173;43.164;27.786;2023-07-20T05:06:27;20.38;;;4.45;;
63087;SDS011;49173;43.164;27.786;2023-07-20T05:08:53;18.15;;;4.80;;
63087;SDS011;49173;43.164;27.786;2023-07-20T05:11:19;11.63;;;4.95;;
63087;SDS011;49173;43.164;27.786;2023-07-20T05:13:45;18.45;;;5.13;;
63087;SDS011;49173;43.164;27.786;2023-07-20T05:16:11;17.20;;;5.35;;
63087;SDS011;49173;43.164;27.786;2023-07-20T05:18:36;14.48;;;6.50;;
63087;SDS011;49173;43.164;27.786;2023-07-20T05:21:02;23.25;;;6.05;;
63087;SDS011;49173;43.164;27.786;2023-07-20T05:23:28;9.32;;;5.18;;
63087;SDS011;49173;43.164;27.786;2023-07-20T05:25:57;12.25;;;4.80;;
63087;SDS011;49173;43.164;27.786;2023-07-20T05:28:24;12.80;;;5.20;;
63087;SDS011;49173;43.164;27.786;2023-07-20T05:30:53;16.33;;;4.82;;
63087;SDS011;49173;43.164;27.786;2023-07-20T05:33:19;13.75;;;4.68;;
63087;SDS011;49173;43.164;27.786;2023-07-20T05:35:46;17.10;;;5.40;;
63087;SDS011;49173;43.164;27.786;2023-07-20T05:38:12;16.02;;;5.45;;
63087;SDS011;49173;43.164;27.786;2023-07-20T05:40:39;12.57;;;4.13;;
63087;SDS011;49173;43.164;27.786;2023-07-20T05:43:06;12.45;;;4.65;;
63087;SDS011;49173;43.164;27.786;2023-07-20T05:45:32;19.25;;;4.80;;
63087;SDS011;49173;43.164;27.786;2023-07-20T05:47:57;16.10;;;4.70;;
63087;SDS011;49173;43.164;27.786;2023-07-20T05:50:23;9.23;;;4.40;;
63087;SDS011;49173;43.164;27.786;2023-07-20T05:52:51;18.73;;;4.13;;
63087;SDS011;49173;43.164;27.786;2023-07-20T05:55:18;14.85;;;4.30;;
63087;SDS011;49173;43.164;27.786;2023-07-20T05:57:44;11.40;;;3.80;;
63087;SDS011;49173;43.164;27.786;2023-07-20T06:00:10;11.02;;;3.65;;
63087;SDS011;49173;43.164;27.786;2023-07-20T06:02:38;18.40;;;4.20;;
63087;SDS011;49173;43.164;27.786;2023-07-20T06:05:05;9.55;;;3.97;;
63087;SDS011;49173;43.164;27.786;2023-07-20T06:07:37;15.35;;;4.00;;
63087;SDS011;49173;43.164;27.786;2023-07-20T06:10:04;12.75;;;3.95;;
63087;SDS011;49173;43.164;27.786;2023-07-20T06:12:33;12.15;;;4.43;;
63087;SDS011;49173;43.164;27.786;2023-07-20T06:15:01;11.45;;;4.70;;
63087;SDS011;49173;43.164;27.786;2023-07-20T06:17:29;12.43;;;4.43;;
63087;SDS011;49173;43.164;27.786;2023-07-20T06:19:55;16.85;;;4.03;;
63087;SDS011;49173;43.164;27.786;2023-07-20T06:22:20;15.25;;;4.22;;
63087;SDS011;49173;43.164;27.786;2023-07-20T06:24:46;13.18;;;3.88;;
63087;SDS011;49173;43.164;27.786;2023-07-20T06:27:15;12.57;;;3.88;;
63087;SDS011;49173;43.164;27.786;2023-07-20T06:29:44;10.80;;;3.30;;
63087;SDS011;49173;43.164;27.786;2023-07-20T06:32:13;8.20;;;3.72;;
63087;SDS011;49173;43.164;27.786;2023-07-20T06:34:45;18.23;;;3.15;;
63087;SDS011;49173;43.164;27.786;2023-07-20T06:37:17;17.48;;;3.63;;
63087;SDS011;49173;43.164;27.786;2023-07-20T06:39:47;20.40;;;3.00;;
63087;SDS011;49173;43.164;27.786;2023-07-20T06:42:17;13.93;;;3.05;;
63087;SDS011;49173;43.164;27.786;2023-07-20T06:44:47;11.25;;;2.70;;
63087;SDS011;49173;43.164;27.786;2023-07-20T06:47:13;10.45;;;3.40;;
63087;SDS011;49173;43.164;27.786;2023-07-20T06:49:43;5.65;;;2.70;;
63087;SDS011;49173;43.164;27.786;2023-07-20T06:52:14;10.93;;;3.33;;
63087;SDS011;49173;43.164;27.786;2023-07-20T06:54:43;9.15;;;2.83;;
63087;SDS011;49173;43.164;27.786;2023-07-20T06:57:13;26.92;;;3.95;;
63087;SDS011;49173;43.164;27.786;2023-07-20T06:59:39;17.77;;;3.33;;
63087;SDS011;49173;43.164;27.786;2023-07-20T07:02:08;23.83;;;3.70;;
63087;SDS011;49173;43.164;27.786;2023-07-20T07:04:35;21.63;;;4.28;;
63087;SDS011;49173;43.164;27.786;2023-07-20T07:07:04;12.35;;;3.78;;
63087;SDS011;49173;43.164;27.786;2023-07-20T07:09:34;13.63;;;3.30;;
63087;SDS011;49173;43.164;27.786;2023-07-20T07:12:04;13.18;;;3.70;;
63087;SDS011;49173;43.164;27.786;2023-07-20T07:14:33;11.48;;;3.50;;
63087;SDS011;49173;43.164;27.786;2023-07-20T07:17:03;12.13;;;3.47;;
63087;SDS011;49173;43.164;27.786;2023-07-20T07:19:32;16.08;;;3.85;;
63087;SDS011;49173;43.164;27.786;2023-07-20T07:22:03;10.20;;;3.60;;
63087;SDS011;49173;43.164;27.786;2023-07-20T07:24:30;14.30;;;3.95;;
63087;SDS011;49173;43.164;27.786;2023-07-20T07:27:00;13.95;;;3.38;;
63087;SDS011;49173;43.164;27.786;2023-07-20T07:29:29;10.60;;;3.05;;
63087;SDS011;49173;43.164;27.786;2023-07-20T07:31:58;10.65;;;3.50;;
63087;SDS011;49173;43.164;27.786;2023-07-20T07:34:25;9.80;;;3.00;;
63087;SDS011;49173;43.164;27.786;2023-07-20T07:37:09;11.20;;;2.95;;
63087;SDS011;49173;43.164;27.786;2023-07-20T07:39:44;11.82;;;2.90;;
63087;SDS011;49173;43.164;27.786;2023-07-20T07:42:44;6.15;;;2.85;;
63087;SDS011;49173;43.164;27.786;2023-07-20T07:45:13;9.45;;;3.03;;
63087;SDS011;49173;43.164;27.786;2023-07-20T07:47:43;10.38;;;3.55;;
63087;SDS011;49173;43.164;27.786;2023-07-20T07:50:13;10.35;;;3.00;;
63087;SDS011;49173;43.164;27.786;2023-07-20T07:52:46;14.55;;;4.10;;
63087;SDS011;49173;43.164;27.786;2023-07-20T07:55:15;16.48;;;3.30;;
63087;SDS011;49173;43.164;27.786;2023-07-20T07:57:46;11.52;;;3.70;;
63087;SDS011;49173;43.164;27.786;2023-07-20T08:00:16;14.55;;;2.97;;
63087;SDS011;49173;43.164;27.786;2023-07-20T08:02:45;8.35;;;2.50;;
63087;SDS011;49173;43.164;27.786;2023-07-20T08:05:15;11.65;;;3.28;;
63087;SDS011;49173;43.164;27.786;2023-07-20T08:07:47;8.82;;;2.75;;
63087;SDS011;49173;43.164;27.786;2023-07-20T08:10:17;10.48;;;3.38;;
63087;SDS011;49173;43.164;27.786;2023-07-20T08:12:46;8.48;;;3.00;;
63087;SDS011;49173;43.164;27.786;2023-07-20T08:15:15;10.32;;;2.58;;
63087;SDS011;49173;43.164;27.786;2023-07-20T08:17:47;8.75;;;2.47;;
63087;SDS011;49173;43.164;27.786;2023-07-20T08:20:17;6.13;;;2.20;;
63087;SDS011;49173;43.164;27.786;2023-07-20T08:22:44;9.38;;;2.72;;
63087;SDS011;49173;43.164;27.786;2023-07-20T08:25:14;14.52;;;2.88;;
63087;SDS011;49173;43.164;27.786;2023-07-20T08:27:43;8.55;;;2.67;;
63087;SDS011;49173;43.164;27.786;2023-07-20T08:30:21;11.80;;;2.92;;
63087;SDS011;49173;43.164;27.786;2023-07-20T08:32:53;10.25;;;2.60;;
63087;SDS011;49173;43.164;27.786;2023-07-20T08:35:23;13.45;;;3.05;;
63087;SDS011;49173;43.164;27.786;2023-07-20T08:37:53;16.27;;;3.20;;
63087;SDS011;49173;43.164;27.786;2023-07-20T08:40:22;6.00;;;2.38;;
63087;SDS011;49173;43.164;27.786;2023-07-20T08:42:55;8.68;;;2.95;;
63087;SDS011;49173;43.164;27.786;2023-07-20T08:45:27;7.25;;;2.60;;
63087;SDS011;49173;43.164;27.786;2023-07-20T08:48:01;10.35;;;2.85;;
63087;SDS011;49173;43.164;27.786;2023-07-20T08:50:35;7.82;;;2.63;;
63087;SDS011;49173;43.164;27.786;2023-07-20T08:53:06;8.90;;;2.60;;
63087;SDS011;49173;43.164;27.786;2023-07-20T08:55:41;6.95;;;2.40;;
63087;SDS011;49173;43.164;27.786;2023-07-20T08:58:13;8.88;;;2.53;;
63087;SDS011;49173;43.164;27.786;2023-07-20T09:00:50;6.00;;;2.50;;
63087;SDS011;49173;43.164;27.786;2023-07-20T09:03:28;8.98;;;2.60;;
63087;SDS011;49173;43.164;27.786;2023-07-20T09:05:58;11.43;;;2.83;;
63087;SDS011;49173;43.164;27.786;2023-07-20T09:08:24;19.25;;;3.28;;
63087;SDS011;49173;43.164;27.786;2023-07-20T09:10:51;10.52;;;2.70;;
63087;SDS011;49173;43.164;27.786;2023-07-20T09:13:19;5.57;;;2.45;;
63087;SDS011;49173;43.164;27.786;2023-07-20T09:15:53;8.95;;;2.90;;
63087;SDS011;49173;43.164;27.786;2023-07-20T09:18:24;29.77;;;3.67;;
63087;SDS011;49173;43.164;27.786;2023-07-20T09:20:58;8.48;;;3.10;;
63087;SDS011;49173;43.164;27.786;2023-07-20T09:26:01;6.97;;;3.08;;
63087;SDS011;49173;43.164;27.786;2023-07-20T09:28:53;10.93;;;3.20;;
63087;SDS011;49173;43.164;27.786;2023-07-20T09:31:23;8.82;;;3.65;;
63087;SDS011;49173;43.164;27.786;2023-07-20T09:33:55;10.70;;;3.28;;
63087;SDS011;49173;43.164;27.786;2023-07-20T09:36:28;11.10;;;3.13;;
63087;SDS011;49173;43.164;27.786;2023-07-20T09:39:04;9.73;;;3.10;;
63087;SDS011;49173;43.164;27.786;2023-07-20T09:41:40;11.30;;;3.30;;
63087;SDS011;49173;43.164;27.786;2023-07-20T09:44:10;14.25;;;3.13;;
63087;SDS011;49173;43.164;27.786;2023-07-20T09:46:41;9.85;;;2.88;;
63087;SDS011;49173;43.164;27.786;2023-07-20T09:49:19;12.50;;;3.00;;
63087;SDS011;49173;43.164;27.786;2023-07-20T09:51:49;6.82;;;2.67;;
63087;SDS011;49173;43.164;27.786;2023-07-20T09:54:23;5.93;;;2.80;;
63087;SDS011;49173;43.164;27.786;2023-07-20T09:56:54;8.65;;;3.10;;
63087;SDS011;49173;43.164;27.786;2023-07-20T09:59:24;9.38;;;3.20;;
63087;SDS011;49173;43.164;27.786;2023-07-20T10:01:54;10.27;;;3.45;;
63087;SDS011;49173;43.164;27.786;2023-07-20T10:04:25;7.68;;;3.22;;
63087;SDS011;49173;43.164;27.786;2023-07-20T10:06:58;8.43;;;3.30;;
63087;SDS011;49173;43.164;27.786;2023-07-20T10:09:31;9.38;;;3.58;;
63087;SDS011;49173;43.164;27.786;2023-07-20T10:11:58;8.10;;;3.47;;
63087;SDS011;49173;43.164;27.786;2023-07-20T10:14:26;11.53;;;3.43;;
63087;SDS011;49173;43.164;27.786;2023-07-20T10:17:06;9.18;;;3.40;;
63087;SDS011;49173;43.164;27.786;2023-07-20T10:19:47;10.02;;;3.40;;
63087;SDS011;49173;43.164;27.786;2023-07-20T10:22:24;10.95;;;3.42;;
63087;SDS011;49173;43.164;27.786;2023-07-20T10:24:56;7.00;;;3.15;;
63087;SDS011;49173;43.164;27.786;2023-07-20T10:27:30;6.78;;;3.42;;
63087;SDS011;49173;43.164;27.786;2023-07-20T10:30:04;9.23;;;2.90;;
63087;SDS011;49173;43.164;27.786;2023-07-20T10:32:35;11.13;;;3.10;;
63087;SDS011;49173;43.164;27.786;2023-07-20T10:35:15;6.32;;;3.13;;
63087;SDS011;49173;43.164;27.786;2023-07-20T10:40:33;6.50;;;3.25;;
63087;SDS011;49173;43.164;27.786;2023-07-20T10:43:09;9.73;;;3.33;;
63087;SDS011;49173;43.164;27.786;2023-07-20T10:48:05;7.63;;;3.08;;
63087;SDS011;49173;43.164;27.786;2023-07-20T10:50:39;7.50;;;3.00;;
63087;SDS011;49173;43.164;27.786;2023-07-20T10:53:13;8.10;;;2.85;;
63087;SDS011;49173;43.164;27.786;2023-07-20T10:55:43;11.15;;;3.28;;
63087;SDS011;49173;43.164;27.786;2023-07-20T10:58:16;6.68;;;2.90;;
63087;SDS011;49173;43.164;27.786;2023-07-20T11:00:57;8.52;;;3.42;;
63087;SDS011;49173;43.164;27.786;2023-07-20T11:03:27;11.23;;;2.90;;
63087;SDS011;49173;43.164;27.786;2023-07-20T11:05:59;7.50;;;2.70;;
63087;SDS011;49173;43.164;27.786;2023-07-20T11:08:49;7.15;;;2.90;;
63087;SDS011;49173;43.164;27.786;2023-07-20T11:11:26;6.30;;;2.72;;
63087;SDS011;49173;43.164;27.786;2023-07-20T11:13:57;9.70;;;3.10;;
63087;SDS011;49173;43.164;27.786;2023-07-20T11:16:34;6.22;;;2.90;;
63087;SDS011;49173;43.164;27.786;2023-07-20T11:19:14;14.20;;;3.67;;
63087;SDS011;49173;43.164;27.786;2023-07-20T11:21:50;7.90;;;2.60;;
63087;SDS011;49173;43.164;27.786;2023-07-20T11:24:23;9.57;;;2.33;;
63087;SDS011;49173;43.164;27.786;2023-07-20T11:26:51;8.68;;;2.58;;
63087;SDS011;49173;43.164;27.786;2023-07-20T11:29:21;10.13;;;2.45;;
63087;SDS011;49173;43.164;27.786;2023-07-20T11:31:52;8.18;;;2.78;;
63087;SDS011;49173;43.164;27.786;2023-07-20T11:34:23;7.63;;;2.72;;
63087;SDS011;49173;43.164;27.786;2023-07-20T11:36:53;6.60;;;2.72;;
63087;SDS011;49173;43.164;27.786;2023-07-20T11:39:22;6.30;;;2.45;;
63087;SDS011;49173;43.164;27.786;2023-07-20T11:41:52;5.93;;;2.33;;
63087;SDS011;49173;43.164;27.786;2023-07-20T11:44:23;7.82;;;2.42;;
63087;SDS011;49173;43.164;27.786;2023-07-20T11:47:00;6.65;;;2.17;;
63087;SDS011;49173;43.164;27.786;2023-07-20T11:49:36;9.18;;;2.22;;
63087;SDS011;49173;43.164;27.786;2023-07-20T11:52:10;6.50;;;2.30;;
63087;SDS011;49173;43.164;27.786;2023-07-20T11:54:44;6.32;;;2.28;;
63087;SDS011;49173;43.164;27.786;2023-07-20T11:57:17;5.32;;;2.17;;
63087;SDS011;49173;43.164;27.786;2023-07-20T11:59:57;7.45;;;2.72;;
63087;SDS011;49173;43.164;27.786;2023-07-20T12:02:35;7.93;;;2.67;;
63087;SDS011;49173;43.164;27.786;2023-07-20T12:05:07;8.02;;;2.30;;
63087;SDS011;49173;43.164;27.786;2023-07-20T12:07:35;6.93;;;2.40;;
63087;SDS011;49173;43.164;27.786;2023-07-20T12:10:09;8.00;;;2.17;;
63087;SDS011;49173;43.164;27.786;2023-07-20T12:12:40;4.80;;;2.20;;
63087;SDS011;49173;43.164;27.786;2023-07-20T12:17:46;6.60;;;2.33;;
63087;SDS011;49173;43.164;27.786;2023-07-20T12:20:24;5.28;;;2.05;;
63087;SDS011;49173;43.164;27.786;2023-07-20T12:23:00;8.30;;;2.58;;
63087;SDS011;49173;43.164;27.786;2023-07-20T12:28:09;13.23;;;3.30;;
63087;SDS011;49173;43.164;27.786;2023-07-20T12:30:42;14.70;;;3.50;;
63087;SDS011;49173;43.164;27.786;2023-07-20T12:33:10;9.18;;;3.63;;
63087;SDS011;49173;43.164;27.786;2023-07-20T12:35:37;10.00;;;3.53;;
63087;SDS011;49173;43.164;27.786;2023-07-20T12:38:03;9.80;;;3.25;;
63087;SDS011;49173;43.164;27.786;2023-07-20T12:40:29;9.60;;;3.72;;
63087;SDS011;49173;43.164;27.786;2023-07-20T12:42:56;8.00;;;3.00;;
63087;SDS011;49173;43.164;27.786;2023-07-20T12:45:23;7.47;;;3.20;;
63087;SDS011;49173;43.164;27.786;2023-07-20T12:47:49;7.15;;;3.22;;
63087;SDS011;49173;43.164;27.786;2023-07-20T12:50:15;9.82;;;3.20;;
63087;SDS011;49173;43.164;27.786;2023-07-20T12:52:41;13.50;;;3.17;;
63087;SDS011;49173;43.164;27.786;2023-07-20T12:55:07;10.98;;;3.30;;
63087;SDS011;49173;43.164;27.786;2023-07-20T12:57:35;8.27;;;3.35;;
63087;SDS011;49173;43.164;27.786;2023-07-20T13:00:08;7.57;;;3.05;;
63087;SDS011;49173;43.164;27.786;2023-07-20T13:02:52;8.57;;;2.90;;
63087;SDS011;49173;43.164;27.786;2023-07-20T13:05:24;8.48;;;3.17;;
63087;SDS011;49173;43.164;27.786;2023-07-20T13:08:01;7.03;;;3.20;;
63087;SDS011;49173;43.164;27.786;2023-07-20T13:10:31;9.60;;;2.80;;
63087;SDS011;49173;43.164;27.786;2023-07-20T13:13:04;10.15;;;3.10;;
63087;SDS011;49173;43.164;27.786;2023-07-20T13:15:43;9.93;;;2.90;;
63087;SDS011;49173;43.164;27.786;2023-07-20T13:18:13;7.55;;;2.95;;
63087;SDS011;49173;43.164;27.786;2023-07-20T13:20:42;9.43;;;2.83;;
63087;SDS011;49173;43.164;27.786;2023-07-20T13:23:12;10.05;;;3.05;;
63087;SDS011;49173;43.164;27.786;2023-07-20T13:25:41;8.50;;;3.10;;
63087;SDS011;49173;43.164;27.786;2023-07-20T13:28:10;5.93;;;2.90;;
63087;SDS011;49173;43.164;27.786;2023-07-20T13:30:48;5.75;;;2.83;;
63087;SDS011;49173;43.164;27.786;2023-07-20T13:33:15;9.90;;;3.00;;
63087;SDS011;49173;43.164;27.786;2023-07-20T13:35:44;7.03;;;2.97;;
63087;SDS011;49173;43.164;27.786;2023-07-20T13:38:10;8.10;;;3.28;;
63087;SDS011;49173;43.164;27.786;2023-07-20T13:40:40;13.70;;;3.00;;
63087;SDS011;49173;43.164;27.786;2023-07-20T13:43:13;10.43;;;3.03;;
63087;SDS011;49173;43.164;27.786;2023-07-20T13:45:42;11.30;;;3.80;;
63087;SDS011;49173;43.164;27.786;2023-07-20T13:48:11;10.32;;;3.40;;
63087;SDS011;49173;43.164;27.786;2023-07-20T13:50:47;5.93;;;3.45;;
63087;SDS011;49173;43.164;27.786;2023-07-20T13:53:19;8.95;;;3.30;;
63087;SDS011;49173;43.164;27.786;2023-07-20T13:55:47;11.52;;;3.78;;
63087;SDS011;49173;43.164;27.786;2023-07-20T13:58:20;5.60;;;3.33;;
63087;SDS011;49173;43.164;27.786;2023-07-20T14:00:57;12.25;;;3.22;;
63087;SDS011;49173;43.164;27.786;2023-07-20T14:03:26;13.02;;;3.45;;
63087;SDS011;49173;43.164;27.786;2023-07-20T14:05:55;8.98;;;3.28;;
63087;SDS011;49173;43.164;27.786;2023-07-20T14:08:25;12.10;;;3.95;;
63087;SDS011;49173;43.164;27.786;2023-07-20T14:10:56;9.93;;;3.38;;
63087;SDS011;49173;43.164;27.786;2023-07-20T14:13:28;10.10;;;3.20;;
63087;SDS011;49173;43.164;27.786;2023-07-20T14:16:04;10.23;;;3.60;;
63087;SDS011;49173;43.164;27.786;2023-07-20T14:18:36;8.48;;;3.30;;
63087;SDS011;49173;43.164;27.786;2023-07-20T14:21:05;13.00;;;3.67;;
63087;SDS011;49173;43.164;27.786;2023-07-20T14:23:35;7.07;;;3.15;;
63087;SDS011;49173;43.164;27.786;2023-07-20T14:26:04;8.38;;;3.42;;
63087;SDS011;49173;43.164;27.786;2023-07-20T14:28:31;7.97;;;3.17;;
63087;SDS011;49173;43.164;27.786;2023-07-20T14:31:02;8.45;;;3.80;;
63087;SDS011;49173;43.164;27.786;2023-07-20T14:33:34;7.55;;;3.15;;
63087;SDS011;49173;43.164;27.786;2023-07-20T14:36:04;7.85;;;3.47;;
63087;SDS011;49173;43.164;27.786;2023-07-20T14:38:35;10.02;;;3.63;;
63087;SDS011;49173;43.164;27.786;2023-07-20T14:41:01;4.88;;;3.45;;
63087;SDS011;49173;43.164;27.786;2023-07-20T14:43:31;9.82;;;3.40;;
63087;SDS011;49173;43.164;27.786;2023-07-20T14:46:01;6.60;;;3.70;;
63087;SDS011;49173;43.164;27.786;2023-07-20T14:48:30;8.00;;;3.75;;
63087;SDS011;49173;43.164;27.786;2023-07-20T14:51:01;10.18;;;3.70;;
63087;SDS011;49173;43.164;27.786;2023-07-20T14:53:34;11.75;;;3.88;;
63087;SDS011;49173;43.164;27.786;2023-07-20T14:56:03;7.57;;;3.30;;
63087;SDS011;49173;43.164;27.786;2023-07-20T14:58:33;6.88;;;3.53;;
63087;SDS011;49173;43.164;27.786;2023-07-20T15:01:03;9.55;;;3.95;;
63087;SDS011;49173;43.164;27.786;2023-07-20T15:03:37;6.45;;;3.67;;
63087;SDS011;49173;43.164;27.786;2023-07-20T15:06:12;6.65;;;3.58;;